SLCB/CBB METAR and TAF weather

Enter ICAO airport designator
Station Type Date Time Source
SLCB METAR 2020/11/28 20:00 UTC NOAA

SLCB 282000Z 08009KT 9999 FEW042 FEW044CB 30/03 Q1018


Station Type Date Time Source
SLCB Decoded METAR 2020/11/28 20:00 UTC NOAA

Cochabamba, Bolivia (SLCB) 17-25S 066-11W 2570M
Nov 28, 2020 - 03:00 PM EST / 2020.11.28 2000 UTC
Wind: from the E (080 degrees) at 10 MPH (9 KT):0
Visibility: greater than 7 mile(s):0
Sky conditions: mostly clear
Weather: Cumulonimbus clouds observed
Temperature: 86 F (30 C)
Dew Point: 37 F (3 C)
Relative Humidity: 17%
Pressure (altimeter): 30.06 in. Hg (1018 hPa)
ob: SLCB 282000Z 08009KT 9999 FEW042 FEW044CB 30/03 Q1018
cycle: 20

Station Type Date Time Source
SLCB TAF 2020/11/28 18:58 UTC NOAA

TAF SLCB 281650Z 2818/2918 24010KT 9999 FEW040 TX32/2819Z TN13/2910Z
TEMPO 2820/2822 TS FEW043CB
BECMG 2902/2904 00000KT SCT033

Example: see airport list